D73

Monroe-Walton County Airport

Monroe, Georgia, USA
METAR KD73 210515Z AUTO 29004KT 10SM OVC006 23/22 A3008 RMK AO2 T02270217
Observed Flight Rules
Aug-21 @ 05:15 UTC (12 hours ago) Instrument Flight Rules
Wind Visibility Clouds
290° at 4 knots 10 miles
  • Overcast at 600' AGL
Temperatures Readings
Current 23°C / 73°F
Dewpoint 22°C / 72°F
Humidity 94%
Altimeter 30.08" Hg
Pressure 1019 hPa
Elevation 267
METAR KD73 210515Z AUTO 29004KT 10SM OVC006 23/22 A3008 RMK AO2 T02270217
Observed Flight Rules
Aug-21 @ 05:15 UTC
(12 hours ago)
IFR
Wind Visibility
290° at 4 knots 10 miles
Clouds
  • Overcast at 600' AGL
Temperature Dewpoint
23°C / 73°F 22°C / 72°F
Humidity Altimeter Pressure
94% 30.08" Hg 1019 hPa